Terminal Aerodrome Forecast
Issued by NWS

Home | Current Version | Previous Version | Text Only | Print | Product List | Glossary On
Versions: 1 2 3 4 5 6 7 8 9 10 11 12 13 14 15 16 17 18 19 20
000
FTUS45 KABQ 011100 RRA
TAFROW
TAF
KROW 011140Z 0112/0212 29005KT P6SM VCSH BKN080 OVC120
     FM011400 15005KT P6SM SCT050 BKN120
     FM011800 15010KT P6SM SCT120
     FM012200 15010KT P6SM VCTS BKN050CB BKN100
     FM020100 02006KT P6SM VCSH SCT035 OVC050=

USA.gov is the U.S. government's official web portal to all federal, state and local government web resources and services.